createdAt,value
2019-03-11T00:00:39.308Z,100397.88
2019-03-11T00:03:06.031Z,100391.62
2019-03-11T00:05:32.197Z,100396.50
2019-03-11T00:07:58.422Z,100388.58
2019-03-11T00:10:24.695Z,100393.86
2019-03-11T00:12:50.950Z,100390.80
2019-03-11T00:15:17.076Z,100381.34
2019-03-11T00:17:43.388Z,100389.86
2019-03-11T00:20:09.703Z,100390.17
2019-03-11T00:22:35.990Z,100386.64
2019-03-11T00:25:03.320Z,100381.18
2019-03-11T00:27:29.534Z,100400.92
2019-03-11T00:29:55.644Z,100396.45
2019-03-11T00:32:21.777Z,100399.68
2019-03-11T00:34:47.874Z,100398.05
2019-03-11T00:37:14.073Z,100390.44
2019-03-11T00:39:40.245Z,100390.22
2019-03-11T00:42:06.713Z,100389.71
2019-03-11T00:44:32.864Z,100393.92
2019-03-11T00:46:59.123Z,100391.03
2019-03-11T00:49:25.228Z,100386.36
2019-03-11T00:51:51.354Z,100377.50
2019-03-11T00:54:17.565Z,100373.98
2019-03-11T00:56:43.805Z,100380.88
2019-03-11T00:59:09.919Z,100374.44
2019-03-11T01:01:36.167Z,100392.29
2019-03-11T01:04:02.504Z,100374.25
2019-03-11T01:06:28.590Z,100388.58
2019-03-11T01:08:54.824Z,100389.92
2019-03-11T01:11:21.017Z,100380.51
2019-03-11T01:13:47.113Z,100379.58
2019-03-11T01:16:13.327Z,100391.71
2019-03-11T01:18:39.432Z,100380.16
2019-03-11T01:21:05.585Z,100378.70
2019-03-11T01:23:31.752Z,100387.89
2019-03-11T01:25:57.893Z,100381.11
2019-03-11T01:28:24.131Z,100384.09
2019-03-11T01:30:50.204Z,100367.77
2019-03-11T01:33:16.372Z,100367.62
2019-03-11T01:35:42.774Z,100369.52
2019-03-11T01:38:09.005Z,100364.81
2019-03-11T01:40:35.306Z,100373.17
2019-03-11T01:43:01.474Z,100361.22
2019-03-11T01:45:27.707Z,100373.61
2019-03-11T01:47:53.832Z,100373.95
2019-03-11T01:50:20.062Z,100375.28
2019-03-11T01:52:46.225Z,100375.27
2019-03-11T01:55:12.955Z,100372.03
2019-03-11T01:57:39.184Z,100361.09
2019-03-11T02:00:08.792Z,100356.26
2019-03-11T02:02:35.031Z,100357.08
2019-03-11T02:05:01.275Z,100348.40
2019-03-11T02:07:27.374Z,100354.66
2019-03-11T02:09:53.617Z,100343.56
2019-03-11T02:12:19.847Z,100340.05
2019-03-11T02:14:46.043Z,100342.13
2019-03-11T02:17:12.110Z,100345.97
2019-03-11T02:19:38.280Z,100340.37
2019-03-11T02:22:04.460Z,100337.48
2019-03-11T02:24:30.581Z,100341.19
2019-03-11T02:26:56.909Z,100336.20
2019-03-11T02:29:23.308Z,100333.33
2019-03-11T02:31:49.532Z,100328.19
2019-03-11T02:34:15.665Z,100322.86
2019-03-11T02:36:41.747Z,100319.98
2019-03-11T02:39:08.420Z,100323.67
2019-03-11T02:41:34.724Z,100316.59
2019-03-11T02:44:01.059Z,100320.69
2019-03-11T02:46:27.331Z,100312.41
2019-03-11T02:48:53.514Z,100314.11
2019-03-11T02:51:19.596Z,100316.42
2019-03-11T02:53:45.735Z,100315.15
2019-03-11T02:56:11.851Z,100325.27
2019-03-11T02:58:38.269Z,100331.38
2019-03-11T03:01:23.197Z,100363.29
2019-03-11T03:04:07.761Z,100331.55
2019-03-11T03:06:34.087Z,100321.39
2019-03-11T03:09:00.374Z,100326.83
2019-03-11T03:11:26.613Z,100325.98
2019-03-11T03:13:52.742Z,100316.33
2019-03-11T03:16:19.148Z,100311.63
2019-03-11T03:18:45.383Z,100307.65
2019-03-11T03:21:11.512Z,100311.90
2019-03-11T03:23:37.747Z,100306.85
2019-03-11T03:26:03.942Z,100316.28
2019-03-11T03:28:30.013Z,100312.64
2019-03-11T03:30:56.134Z,100313.88
2019-03-11T03:33:22.264Z,100318.61
2019-03-11T03:35:48.461Z,100308.05
2019-03-11T03:38:28.878Z,100325.70
2019-03-11T03:40:42.723Z,100320.57
2019-03-11T03:43:09.214Z,100314.16
2019-03-11T03:45:38.363Z,100319.14
2019-03-11T03:48:04.691Z,100324.75
2019-03-11T03:50:38.207Z,100330.70
2019-03-11T03:53:04.902Z,100329.41
2019-03-11T03:55:32.316Z,100324.44
2019-03-11T03:57:58.627Z,100327.31
2019-03-11T04:00:24.860Z,100325.05
2019-03-11T04:02:51.026Z,100313.34
2019-03-11T04:05:17.116Z,100314.63
2019-03-11T04:07:44.413Z,100314.98
2019-03-11T04:10:16.146Z,100325.87
2019-03-11T04:12:42.503Z,100317.84
2019-03-11T04:15:09.763Z,100312.70
2019-03-11T04:17:36.050Z,100313.94
2019-03-11T04:20:05.076Z,100306.03
2019-03-11T04:22:31.482Z,100314.30
2019-03-11T04:24:57.819Z,100302.28
2019-03-11T04:27:24.186Z,100302.92
2019-03-11T04:29:50.349Z,100299.22
2019-03-11T04:32:16.627Z,100313.75
2019-03-11T04:34:42.894Z,100318.31
2019-03-11T04:37:08.992Z,100312.41
2019-03-11T04:39:35.299Z,100317.04
2019-03-11T04:42:01.555Z,100328.58
2019-03-11T04:44:27.746Z,100332.91
2019-03-11T04:46:53.964Z,100331.81
2019-03-11T04:49:20.087Z,100339.94
2019-03-11T04:51:46.184Z,100338.70
2019-03-11T04:54:12.582Z,100338.87
2019-03-11T04:56:38.817Z,100340.97
2019-03-11T04:59:11.761Z,100345.94
2019-03-11T05:01:38.228Z,100347.39
2019-03-11T05:04:04.361Z,100352.83
2019-03-11T05:06:30.715Z,100351.22
2019-03-11T05:08:57.020Z,100367.13
2019-03-11T05:11:23.165Z,100348.99
2019-03-11T05:13:49.284Z,100357.82
2019-03-11T05:16:15.847Z,100350.06
2019-03-11T05:18:42.138Z,100355.27
2019-03-11T05:21:08.336Z,100351.27
2019-03-11T05:23:34.553Z,100357.82
2019-03-11T05:26:00.738Z,100358.63
2019-03-11T05:28:27.046Z,100368.38
2019-03-11T05:30:53.244Z,100362.39
2019-03-11T05:33:19.450Z,100374.08
2019-03-11T05:35:45.680Z,100360.30
2019-03-11T05:38:11.953Z,100369.76
2019-03-11T05:40:38.268Z,100379.83
2019-03-11T05:43:04.472Z,100365.68
2019-03-11T05:45:31.620Z,100374.62
2019-03-11T05:47:57.794Z,100370.58
2019-03-11T05:50:23.928Z,100374.19
2019-03-11T05:52:50.345Z,100367.05
2019-03-11T05:55:17.421Z,100363.53
2019-03-11T05:57:43.838Z,100365.27
2019-03-11T06:00:25.002Z,100364.20
2019-03-11T06:02:53.230Z,100365.13
2019-03-11T06:05:19.660Z,100360.09
2019-03-11T06:07:45.833Z,100372.79
2019-03-11T06:10:13.571Z,100381.62
2019-03-11T06:12:39.886Z,100363.34
2019-03-11T06:15:11.259Z,100373.45
2019-03-11T06:17:37.514Z,100363.08
2019-03-11T06:20:25.707Z,100365.55
2019-03-11T06:22:51.784Z,100369.09
2019-03-11T06:25:17.943Z,100376.19
2019-03-11T06:27:44.050Z,100367.51
2019-03-11T06:30:10.842Z,100368.89
2019-03-11T06:32:37.078Z,100384.47
2019-03-11T06:35:03.989Z,100383.75
2019-03-11T06:37:30.219Z,100409.28
2019-03-11T06:39:56.382Z,100395.44
2019-03-11T06:42:22.608Z,100391.38
2019-03-11T06:44:48.746Z,100387.38
2019-03-11T06:47:15.003Z,100393.48
2019-03-11T06:49:41.253Z,100392.87
2019-03-11T06:52:07.489Z,100399.95
2019-03-11T06:54:33.715Z,100402.00
2019-03-11T06:56:59.933Z,100402.00
2019-03-11T06:59:26.066Z,100406.84
2019-03-11T07:01:54.110Z,100406.30
2019-03-11T07:04:20.253Z,100415.30
2019-03-11T07:06:46.429Z,100418.75
2019-03-11T07:09:12.803Z,100412.27
2019-03-11T07:11:39.152Z,100411.09
2019-03-11T07:14:05.416Z,100411.88
2019-03-11T07:16:31.700Z,100412.85
2019-03-11T07:18:57.865Z,100420.16
2019-03-11T07:21:23.960Z,100421.06
2019-03-11T07:23:50.094Z,100428.11
2019-03-11T07:26:16.334Z,100433.72
2019-03-11T07:28:42.516Z,100434.22
2019-03-11T07:31:09.928Z,100437.27
2019-03-11T07:33:36.077Z,100437.58
2019-03-11T07:36:02.455Z,100436.39
2019-03-11T07:38:28.679Z,100433.73
2019-03-11T07:40:54.830Z,100437.83
2019-03-11T07:43:20.940Z,100449.95
2019-03-11T07:45:47.164Z,100445.25
2019-03-11T07:48:13.362Z,100461.59
2019-03-11T07:50:39.609Z,100458.39
2019-03-11T07:53:06.254Z,100457.25
2019-03-11T07:55:32.427Z,100459.31
2019-03-11T07:57:58.617Z,100450.33
2019-03-11T08:00:26.209Z,100436.53
2019-03-11T08:02:52.575Z,100462.22
2019-03-11T08:05:18.819Z,100465.23
2019-03-11T08:07:45.075Z,100466.66
2019-03-11T08:10:24.075Z,100466.91
2019-03-11T08:12:50.485Z,100461.95
2019-03-11T08:15:16.652Z,100472.44
2019-03-11T08:17:43.079Z,100481.11
2019-03-11T08:20:10.504Z,100479.51
2019-03-11T08:22:36.861Z,100475.48
2019-03-11T08:25:05.281Z,100481.04
2019-03-11T08:27:32.606Z,100489.30
2019-03-11T08:29:59.636Z,100483.07
2019-03-11T08:32:27.134Z,100489.64
2019-03-11T08:34:53.242Z,100490.78
2019-03-11T08:37:19.664Z,100483.12
2019-03-11T08:39:45.874Z,100491.55
2019-03-11T08:42:12.210Z,100490.14
2019-03-11T08:44:38.432Z,100493.19
2019-03-11T08:47:04.705Z,100484.00
2019-03-11T08:49:30.811Z,100489.83
2019-03-11T08:51:56.910Z,100494.86
2019-03-11T08:54:24.157Z,100489.94
2019-03-11T08:56:50.374Z,100500.78
2019-03-11T08:59:16.791Z,100495.23
2019-03-11T09:01:42.986Z,100502.77
2019-03-11T09:04:09.210Z,100501.07
2019-03-11T09:06:35.437Z,100502.93
2019-03-11T09:09:01.763Z,100508.78
2019-03-11T09:11:29.803Z,100505.50
2019-03-11T09:13:56.207Z,100508.54
2019-03-11T09:16:22.552Z,100513.70
2019-03-11T09:18:49.021Z,100519.63
2019-03-11T09:21:15.140Z,100521.84
2019-03-11T09:23:41.262Z,100530.23
2019-03-11T09:26:07.384Z,100521.91
2019-03-11T09:28:33.727Z,100538.74
2019-03-11T09:31:00.190Z,100535.63
2019-03-11T09:33:26.616Z,100535.33
2019-03-11T09:35:52.924Z,100544.41
2019-03-11T09:38:19.242Z,100543.53
2019-03-11T09:40:45.545Z,100556.68
2019-03-11T09:43:11.791Z,100563.78
2019-03-11T09:45:38.024Z,100570.06
2019-03-11T09:48:04.107Z,100565.67
2019-03-11T09:50:30.464Z,100559.97
2019-03-11T09:52:56.679Z,100563.88
2019-03-11T09:55:24.587Z,100574.98
2019-03-11T09:57:50.854Z,100574.48
2019-03-11T10:00:31.004Z,100583.34
2019-03-11T10:02:57.239Z,100580.19
2019-03-11T10:05:23.583Z,100587.25
2019-03-11T10:07:49.968Z,100585.91
2019-03-11T10:10:21.337Z,100582.35
2019-03-11T10:12:47.566Z,100570.13
2019-03-11T10:15:18.867Z,100582.58
2019-03-11T10:17:45.525Z,100564.34
2019-03-11T10:20:15.181Z,100576.36
2019-03-11T10:22:41.499Z,100580.30
2019-03-11T10:25:08.743Z,100584.75
2019-03-11T10:27:35.193Z,100591.28
2019-03-11T10:30:01.530Z,100585.60
2019-03-11T10:32:28.078Z,100583.20
2019-03-11T10:34:54.320Z,100594.39
2019-03-11T10:37:20.537Z,100599.85
2019-03-11T10:39:47.903Z,100593.11
2019-03-11T10:42:14.376Z,100593.86
2019-03-11T10:44:40.560Z,100587.89
2019-03-11T10:47:06.852Z,100594.05
2019-03-11T10:49:32.993Z,100588.98
2019-03-11T10:51:59.252Z,100590.77
2019-03-11T10:54:25.469Z,100592.87
2019-03-11T10:56:51.915Z,100596.20
2019-03-11T10:59:18.106Z,100600.52
2019-03-11T11:01:44.405Z,100603.11
2019-03-11T11:04:10.587Z,100596.80
2019-03-11T11:06:36.937Z,100598.30
2019-03-11T11:09:04.943Z,100606.03
2019-03-11T11:11:32.605Z,100591.70
2019-03-11T11:13:58.904Z,100607.66
2019-03-11T11:16:25.148Z,100600.08
2019-03-11T11:18:51.339Z,100600.91
2019-03-11T11:21:17.631Z,100595.02
2019-03-11T11:23:43.846Z,100605.73
2019-03-11T11:26:10.108Z,100602.48
2019-03-11T11:28:36.336Z,100610.22
2019-03-11T11:31:03.154Z,100596.61
2019-03-11T11:33:29.461Z,100606.03
2019-03-11T11:35:56.768Z,100605.88
2019-03-11T11:38:23.571Z,100618.19
2019-03-11T11:40:50.330Z,100613.75
2019-03-11T11:43:16.564Z,100624.22
2019-03-11T11:45:42.882Z,100627.61
2019-03-11T11:48:09.337Z,100637.61
2019-03-11T11:50:35.557Z,100642.42
2019-03-11T11:53:01.773Z,100643.39
2019-03-11T11:55:28.103Z,100632.27
2019-03-11T11:57:54.302Z,100630.20
2019-03-11T12:00:27.776Z,100633.75
2019-03-11T12:02:54.093Z,100631.16
2019-03-11T12:05:21.364Z,100631.97
2019-03-11T12:07:47.868Z,100640.80
2019-03-11T12:10:21.927Z,100646.30
2019-03-11T12:12:48.394Z,100642.19
2019-03-11T12:15:14.792Z,100639.67
2019-03-11T12:17:41.068Z,100638.95
2019-03-11T12:20:14.945Z,100642.59
2019-03-11T12:22:42.724Z,100649.34
2019-03-11T12:25:10.795Z,100645.62
2019-03-11T12:27:37.175Z,100644.98
2019-03-11T12:30:12.753Z,100651.58
2019-03-11T12:32:39.091Z,100643.20
2019-03-11T12:35:07.292Z,100639.45
2019-03-11T12:37:33.557Z,100635.03
2019-03-11T12:39:59.835Z,100627.55
2019-03-11T12:42:26.222Z,100622.52
2019-03-11T12:44:53.732Z,100622.34
2019-03-11T12:47:21.118Z,100645.38
2019-03-11T12:49:47.336Z,100630.45
2019-03-11T12:52:13.695Z,100659.39
2019-03-11T12:54:39.820Z,100655.08
2019-03-11T12:57:05.950Z,100662.52
2019-03-11T12:59:32.271Z,100666.11
2019-03-11T13:01:58.380Z,100671.20
2019-03-11T13:04:24.698Z,100672.33
2019-03-11T13:06:50.968Z,100664.66
2019-03-11T13:09:17.181Z,100673.77
2019-03-11T13:11:43.402Z,100673.51
2019-03-11T13:14:09.719Z,100675.54
2019-03-11T13:16:35.858Z,100674.05
2019-03-11T13:19:12.439Z,100674.31
2019-03-11T13:21:30.512Z,100663.06
2019-03-11T13:23:56.832Z,100665.28
2019-03-11T13:26:22.942Z,100659.56
2019-03-11T13:28:49.047Z,100670.25
2019-03-11T13:31:15.320Z,100669.02
2019-03-11T13:33:41.656Z,100679.79
2019-03-11T13:36:08.040Z,100693.69
2019-03-11T13:38:35.701Z,100700.50
2019-03-11T13:41:03.394Z,100718.41
2019-03-11T13:43:29.720Z,100710.22
2019-03-11T13:45:56.093Z,100699.69
2019-03-11T13:48:22.390Z,100685.30
2019-03-11T13:50:48.505Z,100683.63
2019-03-11T13:53:14.731Z,100685.61
2019-03-11T13:55:41.083Z,100689.71
2019-03-11T13:58:07.474Z,100686.48
2019-03-11T14:00:33.734Z,100700.11
2019-03-11T14:02:59.884Z,100704.94
2019-03-11T14:05:26.351Z,100711.45
2019-03-11T14:07:52.578Z,100706.44
2019-03-11T14:10:18.949Z,100695.64
2019-03-11T14:12:45.172Z,100678.89
2019-03-11T14:15:14.123Z,100692.66
2019-03-11T14:17:40.460Z,100691.66
2019-03-11T14:20:09.854Z,100690.14
2019-03-11T14:22:36.205Z,100677.56
2019-03-11T14:25:04.330Z,100697.17
2019-03-11T14:27:30.858Z,100658.55
2019-03-11T14:29:57.088Z,100679.66
2019-03-11T14:32:23.333Z,100684.00
2019-03-11T14:34:49.541Z,100664.36
2019-03-11T14:37:15.687Z,100662.05
2019-03-11T14:39:41.976Z,100673.86
2019-03-11T14:42:08.480Z,100671.78
2019-03-11T14:44:35.835Z,100655.61
2019-03-11T14:47:02.210Z,100657.45
2019-03-11T14:49:28.396Z,100663.63
2019-03-11T14:51:54.763Z,100651.19
2019-03-11T14:54:21.156Z,100649.48
2019-03-11T14:56:47.285Z,100664.96
2019-03-11T14:59:13.642Z,100663.77
2019-03-11T15:01:39.922Z,100672.06
2019-03-11T15:04:06.327Z,100710.54
2019-03-11T15:06:32.643Z,100733.55
2019-03-11T15:08:58.815Z,100717.46
2019-03-11T15:11:25.215Z,100737.55
2019-03-11T15:13:51.520Z,100725.03
2019-03-11T15:16:17.778Z,100725.19
2019-03-11T15:18:44.221Z,100720.84
2019-03-11T15:21:10.454Z,100710.46
2019-03-11T15:23:36.915Z,100705.14
2019-03-11T15:26:05.609Z,100718.25
2019-03-11T15:28:31.549Z,100707.06
2019-03-11T15:30:57.809Z,100704.97
2019-03-11T15:33:24.016Z,100708.88
2019-03-11T15:35:50.176Z,100703.91
2019-03-11T15:38:16.547Z,100705.98
2019-03-11T15:40:42.902Z,100710.18
2019-03-11T15:43:09.130Z,100702.50
2019-03-11T15:45:38.899Z,100706.14
2019-03-11T15:48:03.658Z,100699.66
2019-03-11T15:50:32.022Z,100703.23
2019-03-11T15:52:58.284Z,100720.02
2019-03-11T15:55:24.525Z,100718.89
2019-03-11T15:57:50.820Z,100708.91
2019-03-11T16:00:18.785Z,100717.38
2019-03-11T16:02:45.227Z,100730.53
2019-03-11T16:05:11.626Z,100716.33
2019-03-11T16:07:38.079Z,100736.62
2019-03-11T16:10:16.259Z,100739.20
2019-03-11T16:12:36.035Z,100721.02
2019-03-11T16:15:03.967Z,100723.40
2019-03-11T16:17:30.301Z,100725.25
2019-03-11T16:19:56.556Z,100725.81
2019-03-11T16:22:26.136Z,100730.66
2019-03-11T16:24:50.960Z,100722.36
2019-03-11T16:27:17.186Z,100722.92
2019-03-11T16:29:43.465Z,100733.03
2019-03-11T16:32:11.931Z,100728.28
2019-03-11T16:34:38.256Z,100728.13
2019-03-11T16:37:04.435Z,100740.75
2019-03-11T16:39:30.651Z,100746.88
2019-03-11T16:41:56.804Z,100734.66
2019-03-11T16:44:23.198Z,100751.70
2019-03-11T16:46:49.653Z,100759.17
2019-03-11T16:49:15.955Z,100771.17
2019-03-11T16:51:42.190Z,100761.50
2019-03-11T16:54:08.339Z,100763.45
2019-03-11T16:56:34.602Z,100779.16
2019-03-11T16:59:00.857Z,100773.91
2019-03-11T17:01:27.198Z,100792.75
2019-03-11T17:03:53.434Z,100795.32
2019-03-11T17:06:19.680Z,100809.79
2019-03-11T17:08:45.915Z,100809.14
2019-03-11T17:11:12.294Z,100811.27
2019-03-11T17:13:38.533Z,100814.81
2019-03-11T17:16:04.842Z,100832.54
2019-03-11T17:18:31.113Z,100833.99
2019-03-11T17:20:57.345Z,100843.48
2019-03-11T17:23:23.570Z,100847.69
2019-03-11T17:25:49.896Z,100858.88
2019-03-11T17:28:17.207Z,100869.08
2019-03-11T17:30:43.388Z,100861.18
2019-03-11T17:33:09.603Z,100869.89
2019-03-11T17:35:37.689Z,100881.17
2019-03-11T17:38:03.961Z,100883.10
2019-03-11T17:40:30.302Z,100893.57
2019-03-11T17:42:57.875Z,100892.08
2019-03-11T17:45:24.206Z,100908.68
2019-03-11T17:47:51.604Z,100903.80
2019-03-11T17:50:20.421Z,100917.25
2019-03-11T17:52:46.950Z,100929.89
2019-03-11T17:55:14.813Z,100942.47
2019-03-11T17:57:41.225Z,100953.42
2019-03-11T18:00:15.230Z,100949.41
2019-03-11T18:02:41.557Z,100978.84
2019-03-11T18:05:08.136Z,100984.88
2019-03-11T18:07:34.377Z,100993.77
2019-03-11T18:10:02.822Z,101000.78
2019-03-11T18:12:31.076Z,101015.60
2019-03-11T18:14:57.420Z,101023.27
2019-03-11T18:17:23.661Z,101039.72
2019-03-11T18:19:49.982Z,101039.72
2019-03-11T18:22:16.342Z,101052.78
2019-03-11T18:24:42.540Z,101060.20
2019-03-11T18:27:08.833Z,101061.50
2019-03-11T18:29:35.291Z,101081.78
2019-03-11T18:32:02.304Z,101087.14
2019-03-11T18:34:28.895Z,101097.93
2019-03-11T18:36:55.031Z,101110.52
2019-03-11T18:39:21.255Z,101120.53
2019-03-11T18:41:47.565Z,101130.34
2019-03-11T18:44:13.913Z,101139.66
2019-03-11T18:46:40.145Z,101151.27
2019-03-11T18:49:06.411Z,101156.63
2019-03-11T18:51:32.900Z,101159.34
2019-03-11T18:53:59.272Z,101181.61
2019-03-11T18:56:25.606Z,101186.16
2019-03-11T18:58:51.904Z,101201.94
2019-03-11T19:01:18.324Z,101204.00
2019-03-11T19:03:44.471Z,101212.73
2019-03-11T19:06:10.860Z,101217.28
2019-03-11T19:08:37.222Z,101221.62
2019-03-11T19:11:03.421Z,101241.15
2019-03-11T19:13:29.762Z,101241.48
2019-03-11T19:15:56.012Z,101237.48
2019-03-11T19:18:22.169Z,101239.25
2019-03-11T19:20:48.420Z,101241.36
2019-03-11T19:23:14.601Z,101250.28
2019-03-11T19:25:41.707Z,101250.56
2019-03-11T19:28:08.201Z,101267.91
2019-03-11T19:30:34.626Z,101266.09
2019-03-11T19:33:00.813Z,101266.31
2019-03-11T19:35:27.246Z,101273.65
2019-03-11T19:37:53.692Z,101280.81
2019-03-11T19:40:21.886Z,101286.67
2019-03-11T19:42:48.253Z,101290.55
2019-03-11T19:45:15.361Z,101308.09
2019-03-11T19:47:41.766Z,101315.47
2019-03-11T19:50:10.443Z,101307.16
2019-03-11T19:52:36.855Z,101313.13
2019-03-11T19:55:04.231Z,101321.80
2019-03-11T19:57:31.139Z,101325.84
2019-03-11T19:59:57.340Z,101330.31
2019-03-11T20:02:24.493Z,101344.79
2019-03-11T20:04:51.179Z,101345.72
2019-03-11T20:07:17.677Z,101350.94
2019-03-11T20:09:43.946Z,101356.87
2019-03-11T20:12:10.396Z,101359.26
2019-03-11T20:14:36.569Z,101358.33
2019-03-11T20:17:03.004Z,101363.13
2019-03-11T20:19:29.409Z,101372.93
2019-03-11T20:21:55.864Z,101372.27
2019-03-11T20:24:22.255Z,101379.82
2019-03-11T20:26:48.490Z,101386.86
2019-03-11T20:29:14.764Z,101391.91
2019-03-11T20:31:42.273Z,101388.73
2019-03-11T20:34:09.078Z,101396.06
2019-03-11T20:36:35.491Z,101383.58
2019-03-11T20:39:01.881Z,101400.16
2019-03-11T20:41:30.046Z,101398.06
2019-03-11T20:43:56.482Z,101397.06
2019-03-11T20:46:23.008Z,101403.25
2019-03-11T20:48:49.432Z,101399.97
2019-03-11T20:51:15.587Z,101414.34
2019-03-11T20:53:41.760Z,101417.43
2019-03-11T20:56:08.110Z,101427.02
2019-03-11T20:58:34.457Z,101430.40
2019-03-11T21:01:01.155Z,101431.61
2019-03-11T21:03:28.847Z,101439.02
2019-03-11T21:05:58.368Z,101440.12
2019-03-11T21:08:24.456Z,101443.50
2019-03-11T21:10:50.675Z,101440.84
2019-03-11T21:13:17.147Z,101445.97
2019-03-11T21:15:43.694Z,101450.55
2019-03-11T21:18:10.420Z,101450.24
2019-03-11T21:20:36.753Z,101447.66
2019-03-11T21:23:03.278Z,101448.84
2019-03-11T21:25:29.668Z,101459.56
2019-03-11T21:27:56.172Z,101455.88
2019-03-11T21:30:23.452Z,101456.28
2019-03-11T21:32:49.823Z,101461.84
2019-03-11T21:35:16.415Z,101459.56
2019-03-11T21:37:42.949Z,101465.33
2019-03-11T21:40:16.433Z,101467.10
2019-03-11T21:42:42.818Z,101470.87
2019-03-11T21:45:13.966Z,101472.88
2019-03-11T21:47:40.286Z,101480.80
2019-03-11T21:50:18.555Z,101489.92
2019-03-11T21:52:45.139Z,101485.05
2019-03-11T21:55:14.727Z,101493.08
2019-03-11T21:57:41.102Z,101497.03
2019-03-11T22:00:10.642Z,101492.40
2019-03-11T22:02:37.629Z,101498.84
2019-03-11T22:05:04.477Z,101506.87
2019-03-11T22:07:30.912Z,101507.25
2019-03-11T22:09:58.100Z,101503.30
2019-03-11T22:12:24.476Z,101509.05
2019-03-11T22:14:50.685Z,101508.45
2019-03-11T22:17:16.844Z,101508.97
2019-03-11T22:19:43.380Z,101512.31
2019-03-11T22:22:09.630Z,101519.97
2019-03-11T22:24:35.831Z,101524.11
2019-03-11T22:27:02.025Z,101530.16
2019-03-11T22:29:28.290Z,101536.41
2019-03-11T22:31:54.421Z,101537.50
2019-03-11T22:34:20.677Z,101542.27
2019-03-11T22:36:46.906Z,101539.28
2019-03-11T22:39:13.075Z,101543.16
2019-03-11T22:41:39.393Z,101550.89
2019-03-11T22:44:05.525Z,101549.89
2019-03-11T22:46:31.709Z,101548.22
2019-03-11T22:48:58.053Z,101550.60
2019-03-11T22:51:24.350Z,101553.17
2019-03-11T22:53:51.829Z,101551.70
2019-03-11T22:56:17.959Z,101554.35
2019-03-11T22:58:44.188Z,101560.00
2019-03-11T23:01:10.719Z,101552.67
2019-03-11T23:03:37.099Z,101559.52
2019-03-11T23:06:03.614Z,101567.34
2019-03-11T23:08:29.960Z,101564.16
2019-03-11T23:10:56.226Z,101567.83
2019-03-11T23:13:22.401Z,101569.92
2019-03-11T23:15:50.416Z,101570.21
2019-03-11T23:18:16.558Z,101569.01
2019-03-11T23:20:42.939Z,101561.84
2019-03-11T23:23:09.320Z,101563.66
2019-03-11T23:25:35.467Z,101572.39
2019-03-11T23:28:01.847Z,101568.53
2019-03-11T23:30:28.103Z,101565.74
2019-03-11T23:32:54.431Z,101568.72
2019-03-11T23:35:20.755Z,101564.73
2019-03-11T23:37:46.989Z,101555.31
2019-03-11T23:40:15.543Z,101563.96
2019-03-11T23:42:41.980Z,101572.39
2019-03-11T23:45:10.098Z,101569.49
2019-03-11T23:47:36.328Z,101574.45
2019-03-11T23:50:03.739Z,101566.03
2019-03-11T23:52:29.869Z,101564.66
2019-03-11T23:54:55.974Z,101570.59
2019-03-11T23:57:22.074Z,101569.01
2019-03-11T23:59:48.216Z,101580.50
